createdAt,value
2022-11-06T00:00:30.216Z,6.19
2022-11-06T00:03:01.459Z,6.14
2022-11-06T00:05:48.437Z,6.11
2022-11-06T00:08:16.707Z,6.05
2022-11-06T00:10:44.141Z,5.99
2022-11-06T00:13:11.202Z,5.93
2022-11-06T00:15:38.444Z,5.90
2022-11-06T00:18:05.479Z,5.87
2022-11-06T00:20:32.767Z,5.84
2022-11-06T00:23:00.860Z,5.83
2022-11-06T00:25:28.222Z,5.81
2022-11-06T00:27:55.306Z,5.79
2022-11-06T00:30:22.593Z,5.75
2022-11-06T00:32:49.746Z,5.72
2022-11-06T00:35:17.132Z,5.71
2022-11-06T00:37:44.262Z,5.70
2022-11-06T00:40:12.421Z,5.66
2022-11-06T00:42:39.355Z,5.66
2022-11-06T00:45:07.266Z,5.62
2022-11-06T00:47:34.342Z,5.62
2022-11-06T00:50:06.593Z,5.62
2022-11-06T00:52:33.627Z,5.61
2022-11-06T00:55:00.922Z,5.59
2022-11-06T00:57:28.004Z,5.59
2022-11-06T00:59:55.367Z,5.57
2022-11-06T01:02:22.459Z,5.56
2022-11-06T01:04:49.858Z,5.56
2022-11-06T01:07:19.283Z,5.53
2022-11-06T01:09:46.994Z,5.53
2022-11-06T01:12:14.543Z,5.51
2022-11-06T01:14:43.754Z,5.52
2022-11-06T01:17:11.290Z,5.51
2022-11-06T01:19:38.789Z,5.54
2022-11-06T01:22:05.889Z,5.55
2022-11-06T01:24:33.446Z,5.59
2022-11-06T01:29:48.156Z,5.63
2022-11-06T01:32:15.234Z,5.64
2022-11-06T01:34:42.603Z,5.68
2022-11-06T01:37:14.287Z,5.68
2022-11-06T01:39:42.758Z,5.71
2022-11-06T01:42:12.566Z,5.74
2022-11-06T01:44:42.949Z,5.80
2022-11-06T01:47:36.682Z,5.85
2022-11-06T01:50:11.314Z,5.93
2022-11-06T01:52:39.135Z,5.96
2022-11-06T01:55:17.557Z,5.97
2022-11-06T01:57:45.154Z,5.93
2022-11-06T02:00:13.203Z,5.93
2022-11-06T02:02:43.227Z,5.91
2022-11-06T02:05:11.309Z,5.86
2022-11-06T02:07:40.289Z,5.81
2022-11-06T02:10:08.101Z,5.72
2022-11-06T02:12:57.881Z,5.77
2022-11-06T02:15:39.217Z,5.77
2022-11-06T02:18:38.543Z,5.72
2022-11-06T02:21:41.003Z,5.72
2022-11-06T02:24:40.271Z,5.69
2022-11-06T02:27:12.644Z,5.66
2022-11-06T02:29:48.835Z,5.66
2022-11-06T02:32:27.416Z,5.66
2022-11-06T02:34:56.241Z,5.65
2022-11-06T02:37:30.489Z,5.65
2022-11-06T02:40:00.551Z,5.65
2022-11-06T02:42:30.672Z,5.64
2022-11-06T02:44:59.572Z,5.64
2022-11-06T02:47:32.451Z,5.64
2022-11-06T02:50:24.559Z,5.58
2022-11-06T02:53:00.163Z,5.59
2022-11-06T02:55:37.419Z,5.62
2022-11-06T02:58:12.895Z,5.60
2022-11-06T03:00:45.267Z,5.62
2022-11-06T03:03:37.257Z,5.63
2022-11-06T03:06:10.867Z,5.62
2022-11-06T03:08:50.206Z,5.63
2022-11-06T03:11:30.244Z,5.59
2022-11-06T03:14:00.502Z,5.59
2022-11-06T03:16:49.830Z,5.60
2022-11-06T03:19:23.046Z,5.60
2022-11-06T03:22:11.906Z,5.60
2022-11-06T03:24:45.200Z,5.57
2022-11-06T03:27:29.054Z,5.57
2022-11-06T03:30:16.274Z,5.55
2022-11-06T03:32:43.515Z,5.54
2022-11-06T03:35:26.431Z,5.54
2022-11-06T03:38:09.561Z,5.53
2022-11-06T03:40:50.220Z,5.51
2022-11-06T03:43:23.078Z,5.47
2022-11-06T03:45:53.222Z,5.48
2022-11-06T03:48:26.996Z,5.53
2022-11-06T03:51:20.797Z,5.55
2022-11-06T03:53:59.338Z,5.53
2022-11-06T03:56:33.909Z,5.50
2022-11-06T03:59:04.761Z,5.44
2022-11-06T04:01:37.563Z,5.42
2022-11-06T04:04:16.040Z,5.42
2022-11-06T04:06:49.770Z,5.35
2022-11-06T04:09:39.213Z,5.33
2022-11-06T04:12:32.101Z,5.30
2022-11-06T04:15:00.150Z,5.25
2022-11-06T04:17:30.062Z,5.21
2022-11-06T04:20:00.684Z,5.12
2022-11-06T04:22:53.661Z,5.09
2022-11-06T04:25:42.080Z,5.02
2022-11-06T04:28:43.771Z,4.96
2022-11-06T04:31:22.769Z,4.96
2022-11-06T04:34:02.684Z,4.93
2022-11-06T04:36:47.658Z,4.90
2022-11-06T04:39:22.889Z,4.89
2022-11-06T04:42:05.392Z,4.85
2022-11-06T04:44:38.623Z,4.84
2022-11-06T04:47:09.377Z,4.83
2022-11-06T04:49:41.903Z,4.82
2022-11-06T04:52:13.461Z,4.81
2022-11-06T04:54:41.168Z,4.78
2022-11-06T04:57:08.219Z,4.75
2022-11-06T04:59:37.396Z,4.74
2022-11-06T05:02:05.501Z,4.74
2022-11-06T05:04:33.877Z,4.72
2022-11-06T05:07:00.933Z,4.70
2022-11-06T05:09:28.375Z,4.68
2022-11-06T05:11:55.337Z,4.67
2022-11-06T05:14:22.725Z,4.64
2022-11-06T05:16:49.631Z,4.69
2022-11-06T05:19:16.988Z,4.67
2022-11-06T05:22:02.261Z,4.67
2022-11-06T05:24:31.808Z,4.66
2022-11-06T05:26:59.801Z,4.65
2022-11-06T05:29:27.732Z,4.67
2022-11-06T05:31:54.875Z,4.71
2022-11-06T05:34:22.173Z,4.74
2022-11-06T05:36:52.081Z,4.81
2022-11-06T05:39:19.353Z,4.81
2022-11-06T05:41:46.296Z,4.82
2022-11-06T05:44:13.730Z,4.79
2022-11-06T05:46:49.556Z,4.81
2022-11-06T05:49:18.797Z,4.80
2022-11-06T05:51:46.662Z,4.83
2022-11-06T05:54:14.664Z,4.85
2022-11-06T05:56:41.788Z,4.86
2022-11-06T05:59:09.179Z,4.88
2022-11-06T06:01:36.178Z,4.89
2022-11-06T06:04:03.819Z,4.86
2022-11-06T06:06:31.022Z,4.92
2022-11-06T06:08:58.319Z,4.94
2022-11-06T06:11:25.271Z,4.99
2022-11-06T06:13:55.349Z,5.00
2022-11-06T06:16:22.305Z,5.05
2022-11-06T06:18:51.108Z,5.08
2022-11-06T06:21:18.365Z,5.15
2022-11-06T06:23:45.724Z,5.18
2022-11-06T06:26:12.722Z,5.28
2022-11-06T06:28:40.076Z,5.44
2022-11-06T06:31:08.046Z,5.74
2022-11-06T06:33:35.710Z,6.37
2022-11-06T06:36:04.566Z,7.12
2022-11-06T06:38:31.865Z,7.67
2022-11-06T06:41:08.947Z,8.33
2022-11-06T06:43:36.776Z,9.28
2022-11-06T06:46:06.598Z,9.33
2022-11-06T06:48:34.417Z,9.81
2022-11-06T06:51:03.264Z,9.93
2022-11-06T06:53:31.032Z,10.26
2022-11-06T06:55:59.653Z,10.65
2022-11-06T06:58:27.738Z,11.38
2022-11-06T07:00:58.818Z,12.09
2022-11-06T07:03:26.205Z,12.31
2022-11-06T07:05:55.508Z,12.66
2022-11-06T07:08:25.130Z,12.48
2022-11-06T07:10:52.428Z,12.58
2022-11-06T07:13:19.787Z,12.36
2022-11-06T07:15:46.784Z,12.11
2022-11-06T07:18:14.628Z,12.02
2022-11-06T07:20:43.973Z,12.05
2022-11-06T07:23:11.436Z,12.36
2022-11-06T07:25:38.476Z,12.21
2022-11-06T07:28:07.625Z,12.00
2022-11-06T07:30:36.381Z,11.90
2022-11-06T07:33:05.177Z,12.02
2022-11-06T07:35:33.765Z,12.54
2022-11-06T07:38:06.046Z,12.57
2022-11-06T07:40:36.809Z,12.96
2022-11-06T07:43:08.973Z,13.49
2022-11-06T07:45:37.007Z,13.39
2022-11-06T07:48:10.107Z,13.74
2022-11-06T07:50:37.164Z,13.39
2022-11-06T07:53:04.620Z,13.34
2022-11-06T07:55:31.623Z,13.53
2022-11-06T07:57:59.652Z,13.58
2022-11-06T08:00:26.712Z,13.24
2022-11-06T08:02:56.525Z,12.82
2022-11-06T08:05:23.614Z,12.28
2022-11-06T08:07:56.464Z,12.01
2022-11-06T08:10:23.517Z,11.51
2022-11-06T08:12:50.825Z,11.41
2022-11-06T08:15:17.826Z,11.20
2022-11-06T08:17:45.142Z,11.31
2022-11-06T08:20:12.145Z,11.19
2022-11-06T08:22:39.537Z,11.10
2022-11-06T08:25:07.284Z,11.14
2022-11-06T08:27:34.969Z,10.61
2022-11-06T08:30:02.548Z,10.42
2022-11-06T08:32:32.252Z,10.20
2022-11-06T08:34:59.217Z,10.07
2022-11-06T08:37:26.842Z,9.98
2022-11-06T08:39:53.831Z,9.88
2022-11-06T08:42:21.256Z,9.91
2022-11-06T08:44:48.304Z,9.93
2022-11-06T08:47:15.607Z,9.98
2022-11-06T08:49:42.711Z,10.05
2022-11-06T08:52:10.918Z,9.92
2022-11-06T08:54:38.468Z,9.96
2022-11-06T08:57:08.021Z,10.06
2022-11-06T08:59:38.164Z,9.93
2022-11-06T09:02:05.577Z,9.95
2022-11-06T09:04:35.086Z,9.94
2022-11-06T09:07:04.702Z,9.96
2022-11-06T09:09:34.448Z,9.87
2022-11-06T09:12:02.470Z,9.89
2022-11-06T09:14:31.267Z,9.98
2022-11-06T09:16:58.632Z,10.09
2022-11-06T09:19:25.738Z,10.30
2022-11-06T09:21:54.847Z,10.37
2022-11-06T09:24:43.617Z,10.37
2022-11-06T09:27:12.429Z,10.42
2022-11-06T09:29:44.194Z,10.48
2022-11-06T09:32:11.750Z,10.54
2022-11-06T09:34:39.012Z,10.56
2022-11-06T09:37:06.519Z,10.57
2022-11-06T09:39:33.464Z,10.24
2022-11-06T09:42:28.861Z,10.41
2022-11-06T09:45:17.281Z,10.47
2022-11-06T09:47:50.191Z,10.46
2022-11-06T09:50:23.954Z,10.53
2022-11-06T09:53:07.692Z,10.54
2022-11-06T09:55:40.269Z,10.62
2022-11-06T09:58:33.667Z,10.67
2022-11-06T10:01:19.538Z,10.86
2022-11-06T10:04:04.335Z,10.82
2022-11-06T10:06:33.063Z,10.78
2022-11-06T10:09:04.136Z,10.95
2022-11-06T10:11:34.223Z,10.92
2022-11-06T10:14:05.824Z,10.96
2022-11-06T10:16:42.873Z,10.95
2022-11-06T10:19:31.413Z,11.04
2022-11-06T10:22:14.909Z,10.96
2022-11-06T10:24:47.931Z,10.92
2022-11-06T10:27:17.030Z,10.86
2022-11-06T10:30:03.371Z,10.96
2022-11-06T10:32:53.132Z,10.95
2022-11-06T10:35:45.596Z,10.97
2022-11-06T10:38:16.162Z,11.02
2022-11-06T10:40:46.623Z,11.12
2022-11-06T10:43:25.251Z,11.17
2022-11-06T10:46:02.081Z,11.20
2022-11-06T10:48:41.622Z,11.14
2022-11-06T10:51:38.699Z,11.16
2022-11-06T10:54:33.446Z,11.23
2022-11-06T10:57:40.038Z,11.26
2022-11-06T11:00:13.413Z,11.25
2022-11-06T11:02:46.279Z,11.37
2022-11-06T11:05:16.427Z,11.50
2022-11-06T11:07:46.839Z,11.48
2022-11-06T11:10:25.982Z,11.44
2022-11-06T11:12:56.294Z,11.48
2022-11-06T11:15:26.337Z,11.46
2022-11-06T11:18:13.173Z,11.47
2022-11-06T11:20:47.347Z,11.50
2022-11-06T11:23:18.836Z,11.58
2022-11-06T11:25:58.749Z,11.59
2022-11-06T11:28:33.266Z,11.64
2022-11-06T11:31:11.282Z,11.62
2022-11-06T11:33:51.761Z,11.67
2022-11-06T11:36:19.599Z,11.76
2022-11-06T11:38:48.647Z,11.79
2022-11-06T11:41:19.670Z,11.82
2022-11-06T11:44:14.252Z,11.72
2022-11-06T11:46:50.278Z,11.56
2022-11-06T11:49:32.919Z,11.55
2022-11-06T11:52:12.015Z,11.50
2022-11-06T11:55:49.999Z,11.50
2022-11-06T11:58:28.632Z,11.47
2022-11-06T12:01:00.472Z,11.55
2022-11-06T12:03:34.786Z,11.68
2022-11-06T12:06:09.796Z,11.76
2022-11-06T12:08:41.954Z,11.85
2022-11-06T12:11:16.217Z,11.89
2022-11-06T12:13:43.875Z,11.88
2022-11-06T12:16:17.224Z,11.96
2022-11-06T12:18:50.755Z,11.94
2022-11-06T12:21:27.859Z,11.86
2022-11-06T12:24:04.080Z,11.83
2022-11-06T12:26:42.080Z,11.92
2022-11-06T12:29:33.799Z,11.87
2022-11-06T12:32:38.348Z,11.82
2022-11-06T12:35:24.754Z,11.77
2022-11-06T12:37:55.701Z,11.72
2022-11-06T12:40:33.071Z,11.72
2022-11-06T12:43:03.270Z,11.62
2022-11-06T12:45:50.861Z,11.64
2022-11-06T12:48:55.842Z,11.67
2022-11-06T12:51:42.233Z,11.72
2022-11-06T12:54:34.088Z,11.71
2022-11-06T12:57:02.854Z,11.62
2022-11-06T12:59:46.380Z,11.67
2022-11-06T13:02:23.972Z,11.62
2022-11-06T13:05:04.141Z,11.55
2022-11-06T13:07:43.160Z,11.51
2022-11-06T13:10:49.198Z,11.42
2022-11-06T13:13:25.467Z,11.39
2022-11-06T13:16:16.795Z,11.42
2022-11-06T13:18:53.666Z,11.36
2022-11-06T13:21:26.972Z,11.30
2022-11-06T13:24:03.769Z,11.22
2022-11-06T13:26:32.001Z,11.19
2022-11-06T13:29:05.387Z,11.18
2022-11-06T13:31:42.020Z,11.22
2022-11-06T13:34:22.014Z,11.17
2022-11-06T13:36:52.138Z,11.12
2022-11-06T13:39:27.096Z,11.04
2022-11-06T13:41:56.938Z,10.96
2022-11-06T13:44:26.398Z,10.93
2022-11-06T13:47:10.703Z,10.91
2022-11-06T13:49:47.937Z,10.86
2022-11-06T13:52:21.997Z,10.82
2022-11-06T13:55:13.874Z,10.76
2022-11-06T13:58:17.802Z,10.91
2022-11-06T14:01:11.336Z,10.95
2022-11-06T14:03:43.895Z,10.95
2022-11-06T14:06:21.070Z,10.92
2022-11-06T14:08:55.553Z,10.89
2022-11-06T14:11:35.518Z,10.86
2022-11-06T14:14:15.136Z,10.74
2022-11-06T14:16:45.207Z,10.66
2022-11-06T14:19:24.141Z,10.68
2022-11-06T14:21:55.175Z,10.63
2022-11-06T14:24:33.003Z,10.54
2022-11-06T14:27:30.292Z,10.51
2022-11-06T14:30:20.378Z,10.37
2022-11-06T14:32:48.882Z,10.28
2022-11-06T14:35:29.170Z,10.22
2022-11-06T14:38:20.281Z,10.38
2022-11-06T14:40:48.841Z,10.32
2022-11-06T14:43:29.899Z,10.33
2022-11-06T14:46:05.498Z,10.26
2022-11-06T14:48:45.755Z,10.34
2022-11-06T14:51:16.235Z,10.23
2022-11-06T14:53:51.060Z,10.15
2022-11-06T14:56:27.375Z,9.98
2022-11-06T14:59:06.091Z,9.80
2022-11-06T15:01:36.516Z,9.72
2022-11-06T15:04:20.458Z,9.66
2022-11-06T15:06:51.466Z,9.66
2022-11-06T15:09:25.790Z,9.58
2022-11-06T15:11:55.803Z,9.38
2022-11-06T15:14:23.575Z,9.19
2022-11-06T15:17:07.982Z,9.01
2022-11-06T15:19:46.569Z,8.81
2022-11-06T15:22:32.770Z,8.64
2022-11-06T15:25:21.934Z,8.44
2022-11-06T15:28:06.853Z,8.26
2022-11-06T15:31:06.313Z,8.07
2022-11-06T15:34:02.534Z,7.94
2022-11-06T15:36:35.277Z,7.78
2022-11-06T15:39:41.919Z,7.63
2022-11-06T15:42:19.294Z,7.48
2022-11-06T15:44:49.725Z,7.35
2022-11-06T15:47:27.730Z,7.22
2022-11-06T15:50:14.960Z,7.13
2022-11-06T15:52:45.202Z,7.03
2022-11-06T15:55:23.291Z,6.94
2022-11-06T15:57:55.199Z,6.80
2022-11-06T16:00:25.814Z,6.72
2022-11-06T16:03:02.540Z,6.63
2022-11-06T16:05:33.793Z,6.55
2022-11-06T16:08:03.100Z,6.45
2022-11-06T16:10:33.235Z,6.36
2022-11-06T16:13:04.493Z,6.30
2022-11-06T16:15:45.982Z,6.21
2022-11-06T16:18:23.764Z,6.10
2022-11-06T16:21:19.405Z,6.02
2022-11-06T16:23:52.451Z,5.90
2022-11-06T16:26:32.918Z,5.83
2022-11-06T16:29:09.352Z,5.79
2022-11-06T16:31:40.832Z,5.69
2022-11-06T16:34:36.010Z,5.62
2022-11-06T16:37:30.059Z,5.55
2022-11-06T16:39:59.924Z,5.48
2022-11-06T16:42:35.570Z,5.44
2022-11-06T16:45:09.577Z,5.40
2022-11-06T16:47:37.580Z,5.37
2022-11-06T16:50:44.376Z,5.34
2022-11-06T16:53:16.872Z,5.35
2022-11-06T16:55:53.768Z,5.33
2022-11-06T16:58:23.393Z,5.31
2022-11-06T17:01:07.300Z,5.27
2022-11-06T17:04:03.224Z,5.24
2022-11-06T17:06:36.954Z,5.19
2022-11-06T17:09:24.973Z,5.14
2022-11-06T17:11:55.582Z,5.08
2022-11-06T17:14:26.743Z,5.03
2022-11-06T17:16:58.302Z,4.98
2022-11-06T17:19:28.327Z,4.93
2022-11-06T17:21:58.793Z,4.89
2022-11-06T17:24:42.670Z,4.83
2022-11-06T17:27:13.404Z,4.78
2022-11-06T17:29:42.013Z,4.73
2022-11-06T17:32:11.455Z,4.69
2022-11-06T17:34:39.788Z,4.64
2022-11-06T17:37:11.738Z,4.61
2022-11-06T17:39:41.400Z,4.55
2022-11-06T17:42:11.898Z,4.52
2022-11-06T17:44:40.318Z,4.49
2022-11-06T17:47:10.818Z,4.50
2022-11-06T17:49:40.189Z,4.50
2022-11-06T17:52:09.856Z,4.50
2022-11-06T17:54:40.024Z,4.47
2022-11-06T17:57:08.901Z,4.44
2022-11-06T17:59:41.584Z,4.39
2022-11-06T18:02:30.058Z,4.36
2022-11-06T18:05:10.554Z,4.30
2022-11-06T18:07:41.296Z,4.28
2022-11-06T18:10:12.676Z,4.22
2022-11-06T18:12:41.261Z,4.19
2022-11-06T18:15:10.407Z,4.16
2022-11-06T18:17:45.201Z,4.14
2022-11-06T18:20:17.436Z,4.10
2022-11-06T18:22:46.075Z,4.06
2022-11-06T18:25:15.967Z,4.01
2022-11-06T18:27:44.635Z,3.99
2022-11-06T18:30:14.760Z,3.96
2022-11-06T18:32:44.598Z,3.91
2022-11-06T18:35:15.228Z,3.86
2022-11-06T18:37:45.231Z,3.81
2022-11-06T18:40:14.570Z,3.96
2022-11-06T18:42:44.052Z,4.02
2022-11-06T18:45:13.051Z,4.07
2022-11-06T18:47:42.640Z,4.05
2022-11-06T18:50:13.786Z,4.05
2022-11-06T18:52:57.506Z,4.00
2022-11-06T18:55:29.658Z,3.95
2022-11-06T18:57:59.853Z,3.97
2022-11-06T19:00:28.773Z,3.96
2022-11-06T19:02:58.863Z,4.02
2022-11-06T19:05:29.333Z,3.99
2022-11-06T19:08:00.517Z,3.94
2022-11-06T19:10:30.199Z,3.95
2022-11-06T19:13:03.350Z,3.99
2022-11-06T19:15:33.243Z,4.06
2022-11-06T19:18:03.429Z,4.04
2022-11-06T19:20:32.490Z,4.08
2022-11-06T19:23:02.821Z,4.05
2022-11-06T19:25:31.145Z,4.02
2022-11-06T19:28:05.208Z,4.02
2022-11-06T19:30:34.514Z,4.03
2022-11-06T19:33:04.751Z,3.99
2022-11-06T19:35:33.673Z,3.98
2022-11-06T19:38:02.858Z,4.11
2022-11-06T19:40:31.717Z,4.33
2022-11-06T19:43:01.097Z,4.45
2022-11-06T19:45:30.326Z,4.42
2022-11-06T19:48:00.328Z,4.46
2022-11-06T19:50:58.016Z,4.46
2022-11-06T19:53:22.241Z,4.62
2022-11-06T19:55:52.560Z,4.67
2022-11-06T19:58:25.747Z,4.66
2022-11-06T20:00:54.321Z,4.71
2022-11-06T20:03:24.609Z,4.76
2022-11-06T20:05:57.291Z,4.75
2022-11-06T20:08:32.005Z,4.75
2022-11-06T20:11:06.115Z,4.78
2022-11-06T20:13:37.210Z,4.75
2022-11-06T20:16:12.356Z,4.68
2022-11-06T20:18:40.914Z,4.63
2022-11-06T20:21:11.885Z,4.56
2022-11-06T20:23:42.771Z,4.58
2022-11-06T20:26:11.906Z,4.55
2022-11-06T20:28:41.161Z,4.48
2022-11-06T20:31:13.203Z,4.62
2022-11-06T20:33:43.040Z,4.54
2022-11-06T20:36:23.926Z,4.55
2022-11-06T20:39:01.154Z,4.59
2022-11-06T20:41:30.459Z,4.65
2022-11-06T20:43:59.997Z,4.58
2022-11-06T20:46:30.669Z,4.57
2022-11-06T20:49:00.118Z,4.63
2022-11-06T20:51:32.120Z,4.55
2022-11-06T20:54:06.002Z,4.58
2022-11-06T20:56:34.697Z,4.66
2022-11-06T20:59:03.349Z,4.62
2022-11-06T21:01:32.002Z,4.63
2022-11-06T21:04:01.098Z,4.57
2022-11-06T21:06:30.966Z,4.50
2022-11-06T21:08:59.539Z,4.50
2022-11-06T21:11:28.768Z,4.58
2022-11-06T21:13:57.216Z,4.52
2022-11-06T21:16:28.951Z,4.52
2022-11-06T21:18:59.579Z,4.41
2022-11-06T21:21:30.031Z,4.33
2022-11-06T21:23:58.663Z,4.33
2022-11-06T21:26:32.887Z,4.35
2022-11-06T21:29:03.025Z,4.48
2022-11-06T21:31:34.405Z,4.51
2022-11-06T21:34:03.742Z,4.52
2022-11-06T21:36:37.041Z,4.48
2022-11-06T21:39:08.271Z,4.38
2022-11-06T21:41:38.768Z,4.28
2022-11-06T21:44:08.358Z,4.21
2022-11-06T21:46:42.713Z,4.16
2022-11-06T21:49:13.634Z,4.06
2022-11-06T21:51:41.286Z,4.06
2022-11-06T21:54:30.930Z,4.04
2022-11-06T21:56:58.520Z,3.94
2022-11-06T21:59:27.974Z,3.89
2022-11-06T22:01:57.739Z,3.90
2022-11-06T22:04:25.340Z,3.83
2022-11-06T22:06:52.777Z,3.80
2022-11-06T22:09:24.763Z,3.93
2022-11-06T22:11:52.813Z,3.98
2022-11-06T22:14:20.273Z,3.88
2022-11-06T22:16:47.868Z,3.84
2022-11-06T22:19:17.673Z,3.82
2022-11-06T22:21:45.187Z,3.79
2022-11-06T22:24:13.558Z,3.83
2022-11-06T22:26:41.007Z,3.80
2022-11-06T22:29:11.529Z,3.77
2022-11-06T22:31:38.607Z,3.75
2022-11-06T22:34:13.124Z,3.73
2022-11-06T22:36:41.493Z,3.70
2022-11-06T22:39:12.642Z,3.73
2022-11-06T22:41:40.135Z,3.71
2022-11-06T22:44:07.716Z,3.72
2022-11-06T22:46:35.363Z,3.71
2022-11-06T22:49:04.263Z,3.66
2022-11-06T22:51:33.054Z,3.63
2022-11-06T22:54:03.593Z,3.66
2022-11-06T22:56:31.519Z,3.69
2022-11-06T22:59:03.000Z,3.72
2022-11-06T23:01:40.322Z,3.70
2022-11-06T23:04:15.185Z,3.76
2022-11-06T23:06:45.782Z,3.80
2022-11-06T23:09:13.950Z,3.91
2022-11-06T23:11:46.328Z,4.02
2022-11-06T23:14:13.372Z,3.97
2022-11-06T23:17:00.580Z,3.96
2022-11-06T23:19:30.200Z,3.95
2022-11-06T23:22:16.163Z,3.86
2022-11-06T23:24:43.445Z,3.74
2022-11-06T23:27:11.731Z,3.65
2022-11-06T23:29:39.472Z,3.56
2022-11-06T23:32:10.638Z,3.53
2022-11-06T23:34:37.657Z,3.42
2022-11-06T23:37:05.465Z,3.35
2022-11-06T23:39:32.721Z,3.28
2022-11-06T23:42:02.126Z,3.29
2022-11-06T23:44:47.808Z,3.28
2022-11-06T23:47:15.131Z,3.25
2022-11-06T23:49:42.079Z,3.25
2022-11-06T23:52:09.455Z,3.30
2022-11-06T23:54:38.835Z,3.29
2022-11-06T23:57:08.059Z,3.23
2022-11-06T23:59:35.704Z,3.17
